Time,TemperatureF,DewpointF,PressureIn,WindDirection,WindDirectionDegrees,WindSpeedMPH,WindSpeedGustMPH,Humidity,HourlyPrecipIn,Conditions,Clouds,dailyrainin,SoftwareType,DateUTC
2013-04-12 00:00:00,49.0,40.0,-100.00,NNE,26,1.0,-999.0,72,0.00,,,-99.99,,2013-04-12 07:00:00,
2013-04-12 00:22:00,49.0,40.0,-100.00,NNE,26,1.0,-999.0,72,0.00,,,-99.99,,2013-04-12 07:22:00,
2013-04-12 00:32:00,49.0,40.0,-100.00,NNE,26,1.0,-999.0,72,0.00,,,-99.99,,2013-04-12 07:32:00,
2013-04-12 00:42:00,49.0,40.0,-100.00,NNE,26,1.0,-999.0,72,0.00,,,-99.99,,2013-04-12 07:42:00,
2013-04-12 00:52:00,49.0,40.0,-100.00,NNE,26,1.0,-999.0,72,0.00,,,-99.99,,2013-04-12 07:52:00,
2013-04-12 01:00:00,47.0,41.0,-100.00,SSW,198,3.0,-999.0,80,0.00,,,-99.99,,2013-04-12 08:00:00,
2013-04-12 01:22:00,47.0,41.0,-100.00,SSW,198,3.0,-999.0,80,0.00,,,-99.99,,2013-04-12 08:22:00,
2013-04-12 01:32:00,47.0,41.0,-100.00,SSW,198,3.0,-999.0,80,0.00,,,-99.99,,2013-04-12 08:32:00,
2013-04-12 01:42:00,47.0,41.0,-100.00,SSW,198,3.0,-999.0,80,0.00,,,-99.99,,2013-04-12 08:42:00,
2013-04-12 01:52:00,47.0,41.0,-100.00,SSW,198,3.0,-999.0,80,0.00,,,-99.99,,2013-04-12 08:52:00,
2013-04-12 02:00:00,45.0,41.0,-100.00,South,184,4.0,-999.0,86,0.00,,,-99.99,,2013-04-12 09:00:00,
2013-04-12 02:22:00,45.0,41.0,-100.00,South,184,4.0,-999.0,86,0.00,,,-99.99,,2013-04-12 09:22:00,
2013-04-12 02:33:00,45.0,41.0,-100.00,South,184,4.0,-999.0,86,0.00,,,-99.99,,2013-04-12 09:33:00,
2013-04-12 02:44:00,45.0,41.0,-100.00,South,184,4.0,-999.0,86,0.00,,,-99.99,,2013-04-12 09:44:00,
2013-04-12 02:53:00,45.0,41.0,-100.00,South,184,4.0,-999.0,86,0.00,,,-99.99,,2013-04-12 09:53:00,
2013-04-12 03:00:00,44.0,41.0,-100.00,SSE,165,0.0,-999.0,88,0.00,,,-99.99,,2013-04-12 10:00:00,
2013-04-12 03:23:00,44.0,41.0,-100.00,SSE,165,0.0,-999.0,88,0.00,,,-99.99,,2013-04-12 10:23:00,
2013-04-12 03:34:00,44.0,41.0,-100.00,SSE,165,0.0,-999.0,88,0.00,,,-99.99,,2013-04-12 10:34:00,
2013-04-12 03:42:00,44.0,41.0,-100.00,SSE,165,0.0,-999.0,88,0.00,,,-99.99,,2013-04-12 10:42:00,
2013-04-12 03:52:00,44.0,41.0,-100.00,SSE,165,0.0,-999.0,88,0.00,,,-99.99,,2013-04-12 10:52:00,
2013-04-12 04:00:00,43.0,40.0,-100.00,East,85,1.0,-999.0,91,0.00,,,-99.99,,2013-04-12 11:00:00,
2013-04-12 04:22:00,43.0,40.0,-100.00,East,85,1.0,-999.0,91,0.00,,,-99.99,,2013-04-12 11:22:00,
2013-04-12 04:33:00,43.0,40.0,-100.00,East,85,1.0,-999.0,91,0.00,,,-99.99,,2013-04-12 11:33:00,
2013-04-12 04:43:00,43.0,40.0,-100.00,East,85,1.0,-999.0,91,0.00,,,-99.99,,2013-04-12 11:43:00,
2013-04-12 04:52:00,43.0,40.0,-100.00,East,85,1.0,-999.0,91,0.00,,,-99.99,,2013-04-12 11:52:00,
2013-04-12 05:00:00,42.0,40.0,-100.00,SSE,159,3.0,-999.0,93,0.00,,,-99.99,,2013-04-12 12:00:00,
2013-04-12 05:22:00,42.0,40.0,-100.00,SSE,159,3.0,-999.0,93,0.00,,,-99.99,,2013-04-12 12:22:00,
2013-04-12 05:33:00,42.0,40.0,-100.00,SSE,159,3.0,-999.0,93,0.00,,,-99.99,,2013-04-12 12:33:00,
2013-04-12 05:42:00,42.0,40.0,-100.00,SSE,159,3.0,-999.0,93,0.00,,,-99.99,,2013-04-12 12:42:00,
2013-04-12 05:53:00,42.0,40.0,-100.00,SSE,159,3.0,-999.0,93,0.00,,,-99.99,,2013-04-12 12:53:00,
2013-04-12 06:00:00,41.0,39.0,-100.00,South,180,1.0,-999.0,94,0.00,,,-99.99,,2013-04-12 13:00:00,
2013-04-12 06:22:00,41.0,39.0,-100.00,South,180,1.0,-999.0,94,0.00,,,-99.99,,2013-04-12 13:22:00,
2013-04-12 06:32:00,41.0,39.0,-100.00,South,180,1.0,-999.0,94,0.00,,,-99.99,,2013-04-12 13:32:00,
2013-04-12 06:43:00,41.0,39.0,-100.00,South,180,1.0,-999.0,94,0.00,,,-99.99,,2013-04-12 13:43:00,
2013-04-12 06:53:00,41.0,39.0,-100.00,South,180,1.0,-999.0,94,0.00,,,-99.99,,2013-04-12 13:53:00,
2013-04-12 07:00:00,39.0,38.0,-100.00,SSE,166,2.0,-999.0,94,0.00,,,-99.99,,2013-04-12 14:00:00,
2013-04-12 07:23:00,39.0,38.0,-100.00,SSE,166,2.0,-999.0,94,0.00,,,-99.99,,2013-04-12 14:23:00,
2013-04-12 07:33:00,39.0,38.0,-100.00,SSE,166,2.0,-999.0,94,0.00,,,-99.99,,2013-04-12 14:33:00,
2013-04-12 07:43:00,39.0,38.0,-100.00,SSE,166,2.0,-999.0,94,0.00,,,-99.99,,2013-04-12 14:43:00,
2013-04-12 07:53:00,39.0,38.0,-100.00,SSE,166,2.0,-999.0,94,0.00,,,-99.99,,2013-04-12 14:53:00,
2013-04-12 08:00:00,41.0,39.0,-100.00,SE,137,3.0,-999.0,94,0.00,,,-99.99,,2013-04-12 15:00:00,
2013-04-12 08:22:00,41.0,39.0,-100.00,SE,137,3.0,-999.0,94,0.00,,,-99.99,,2013-04-12 15:22:00,
2013-04-12 08:33:00,41.0,39.0,-100.00,SE,137,3.0,-999.0,94,0.00,,,-99.99,,2013-04-12 15:33:00,
2013-04-12 08:43:00,41.0,39.0,-100.00,SE,137,3.0,-999.0,94,0.00,,,-99.99,,2013-04-12 15:43:00,
2013-04-12 08:53:00,41.0,39.0,-100.00,SE,137,3.0,-999.0,94,0.00,,,-99.99,,2013-04-12 15:53:00,
2013-04-12 09:00:00,44.0,42.0,-100.00,SSE,163,1.0,-999.0,92,0.00,,,-99.99,,2013-04-12 16:00:00,
2013-04-12 09:23:00,44.0,42.0,-100.00,SSE,163,1.0,-999.0,92,0.00,,,-99.99,,2013-04-12 16:23:00,
2013-04-12 09:33:00,44.0,42.0,-100.00,SSE,163,1.0,-999.0,92,0.00,,,-99.99,,2013-04-12 16:33:00,
2013-04-12 09:43:00,44.0,42.0,-100.00,SSE,163,1.0,-999.0,92,0.00,,,-99.99,,2013-04-12 16:43:00,
2013-04-12 09:53:00,44.0,42.0,-100.00,SSE,163,1.0,-999.0,92,0.00,,,-99.99,,2013-04-12 16:53:00,
2013-04-12 10:00:00,51.0,44.0,-100.00,SSE,153,2.0,-999.0,76,0.00,,,-99.99,,2013-04-12 17:00:00,
2013-04-12 10:23:00,51.0,44.0,-100.00,SSE,153,2.0,-999.0,76,0.00,,,-99.99,,2013-04-12 17:23:00,
2013-04-12 10:34:00,51.0,44.0,-100.00,SSE,153,2.0,-999.0,76,0.00,,,-99.99,,2013-04-12 17:34:00,
2013-04-12 12:00:00,65.0,46.0,-100.00,ENE,77,1.0,-999.0,50,0.00,,,-99.99,,2013-04-12 19:00:00,
2013-04-12 12:27:00,65.0,46.0,-100.00,ENE,77,1.0,-999.0,50,0.00,,,-99.99,,2013-04-12 19:27:00,
2013-04-12 12:33:00,65.0,46.0,-100.00,ENE,77,1.0,-999.0,50,0.00,,,-99.99,,2013-04-12 19:33:00,
2013-04-12 12:43:00,65.0,46.0,-100.00,ENE,77,1.0,-999.0,50,0.00,,,-99.99,,2013-04-12 19:43:00,
2013-04-12 12:53:00,65.0,46.0,-100.00,ENE,77,1.0,-999.0,50,0.00,,,-99.99,,2013-04-12 19:53:00,
2013-04-12 13:00:00,70.0,47.0,-100.00,NNW,343,3.0,-999.0,44,0.00,,,-99.99,,2013-04-12 20:00:00,
2013-04-12 13:22:00,70.0,47.0,-100.00,NNW,343,3.0,-999.0,44,0.00,,,-99.99,,2013-04-12 20:22:00,
2013-04-12 13:33:00,70.0,47.0,-100.00,NNW,343,3.0,-999.0,44,0.00,,,-99.99,,2013-04-12 20:33:00,
2013-04-12 14:22:00,75.0,47.0,-100.00,SSW,206,3.0,-999.0,37,0.00,,,-99.99,,2013-04-12 21:22:00,
2013-04-12 14:33:00,75.0,47.0,-100.00,SSW,206,3.0,-999.0,37,0.00,,,-99.99,,2013-04-12 21:33:00,
2013-04-12 15:23:00,75.0,44.0,-100.00,SE,138,1.0,-999.0,33,0.00,,,-99.99,,2013-04-12 22:23:00,
2013-04-12 15:33:00,75.0,44.0,-100.00,SE,138,1.0,-999.0,33,0.00,,,-99.99,,2013-04-12 22:33:00,
2013-04-12 16:22:00,74.0,41.0,-100.00,NNW,335,4.0,-999.0,31,0.00,,,-99.99,,2013-04-12 23:22:00,
2013-04-12 16:32:00,74.0,41.0,-100.00,NNW,335,4.0,-999.0,31,0.00,,,-99.99,,2013-04-12 23:32:00,
2013-04-12 17:22:00,72.0,46.0,-100.00,NW,322,3.0,-999.0,39,0.00,,,-99.99,,2013-04-13 00:22:00,
2013-04-12 17:32:00,72.0,46.0,-100.00,NW,322,3.0,-999.0,39,0.00,,,-99.99,,2013-04-13 00:32:00,
2013-04-12 18:22:00,71.0,44.0,-100.00,North,349,2.0,-999.0,37,0.00,,,-99.99,,2013-04-13 01:22:00,
2013-04-12 18:33:00,71.0,44.0,-100.00,North,349,2.0,-999.0,37,0.00,,,-99.99,,2013-04-13 01:33:00,
2013-04-12 19:23:00,67.0,37.0,-100.00,NNW,327,3.0,-999.0,33,0.00,,,-99.99,,2013-04-13 02:23:00,
2013-04-12 19:33:00,67.0,37.0,-100.00,NNW,327,3.0,-999.0,33,0.00,,,-99.99,,2013-04-13 02:33:00,
2013-04-12 20:23:00,61.0,41.0,-100.00,NNW,336,2.0,-999.0,48,0.00,,,-99.99,,2013-04-13 03:23:00,
2013-04-12 20:33:00,61.0,41.0,-100.00,NNW,336,2.0,-999.0,48,0.00,,,-99.99,,2013-04-13 03:33:00,
2013-04-12 20:43:00,61.0,41.0,-100.00,NNW,336,2.0,-999.0,48,0.00,,,-99.99,,2013-04-13 03:43:00,
2013-04-12 21:00:00,58.0,40.0,-100.00,North,350,1.0,-999.0,51,0.00,,,-99.99,,2013-04-13 04:00:00,
2013-04-12 21:23:00,58.0,40.0,-100.00,North,350,1.0,-999.0,51,0.00,,,-99.99,,2013-04-13 04:23:00,
2013-04-12 21:33:00,58.0,40.0,-100.00,North,350,1.0,-999.0,51,0.00,,,-99.99,,2013-04-13 04:33:00,
2013-04-12 21:42:00,58.0,40.0,-100.00,North,350,1.0,-999.0,51,0.00,,,-99.99,,2013-04-13 04:42:00,
2013-04-12 21:53:00,58.0,40.0,-100.00,North,350,1.0,-999.0,51,0.00,,,-99.99,,2013-04-13 04:53:00,
2013-04-12 22:00:00,55.0,38.0,-100.00,North,5,3.0,-999.0,53,0.00,,,-99.99,,2013-04-13 05:00:00,
2013-04-12 22:22:00,55.0,38.0,-100.00,North,5,3.0,-999.0,53,0.00,,,-99.99,,2013-04-13 05:22:00,
2013-04-12 22:32:00,55.0,38.0,-100.00,North,5,3.0,-999.0,53,0.00,,,-99.99,,2013-04-13 05:32:00,
2013-04-12 22:43:00,55.0,38.0,-100.00,North,5,3.0,-999.0,53,0.00,,,-99.99,,2013-04-13 05:43:00,
2013-04-12 22:52:00,55.0,38.0,-100.00,North,5,3.0,-999.0,53,0.00,,,-99.99,,2013-04-13 05:52:00,
2013-04-12 23:00:00,54.0,37.0,-100.00,NNW,330,3.0,-999.0,53,0.00,,,-99.99,,2013-04-13 06:00:00,
2013-04-12 23:24:00,54.0,37.0,-100.00,NNW,330,3.0,-999.0,53,0.00,,,-99.99,,2013-04-13 06:24:00,
2013-04-12 23:35:00,54.0,37.0,-100.00,NNW,330,3.0,-999.0,53,0.00,,,-99.99,,2013-04-13 06:35:00,
2013-04-12 23:49:00,54.0,37.0,-100.00,NNW,330,3.0,-999.0,53,0.00,,,-99.99,,2013-04-13 06:49:00,
2013-04-12 23:54:00,54.0,37.0,-100.00,NNW,330,3.0,-999.0,53,0.00,,,-99.99,,2013-04-13 06:54:00,